createdAt,value
2023-05-06T00:00:40.004Z,87.03
2023-05-06T00:03:10.050Z,86.95
2023-05-06T00:05:38.769Z,87.04
2023-05-06T00:08:07.510Z,88.34
2023-05-06T00:10:36.494Z,89.66
2023-05-06T00:13:06.629Z,88.04
2023-05-06T00:15:35.489Z,87.36
2023-05-06T00:18:04.409Z,88.60
2023-05-06T00:20:33.200Z,89.36
2023-05-06T00:23:01.960Z,91.82
2023-05-06T00:25:30.709Z,93.67
2023-05-06T00:27:59.418Z,94.56
2023-05-06T00:30:29.700Z,93.85
2023-05-06T00:32:58.422Z,93.75
2023-05-06T00:35:27.208Z,94.37
2023-05-06T00:38:00.038Z,96.95
2023-05-06T00:40:28.755Z,96.39
2023-05-06T00:42:57.484Z,97.15
2023-05-06T00:45:28.716Z,98.15
2023-05-06T00:47:59.335Z,97.61
2023-05-06T00:50:29.868Z,97.80
2023-05-06T00:53:01.433Z,97.94
2023-05-06T00:55:31.521Z,97.70
2023-05-06T00:58:01.012Z,98.66
2023-05-06T01:00:31.510Z,98.19
2023-05-06T01:03:00.352Z,95.78
2023-05-06T01:05:41.488Z,95.74
2023-05-06T01:08:21.365Z,95.67
2023-05-06T01:10:58.772Z,96.61
2023-05-06T01:13:40.155Z,95.68
2023-05-06T01:16:13.924Z,97.08
2023-05-06T01:18:45.911Z,96.79
2023-05-06T01:21:17.788Z,97.17
2023-05-06T01:23:57.701Z,96.92
2023-05-06T01:26:27.343Z,98.26
2023-05-06T01:28:57.620Z,98.42
2023-05-06T01:31:31.383Z,98.72
2023-05-06T01:34:15.572Z,98.74
2023-05-06T01:36:57.731Z,95.67
2023-05-06T01:39:32.287Z,98.16
2023-05-06T01:42:03.902Z,99.22
2023-05-06T01:44:38.287Z,100.00
2023-05-06T01:47:08.808Z,99.80
2023-05-06T01:49:38.210Z,100.00
2023-05-06T01:52:07.363Z,100.00
2023-05-06T01:54:37.547Z,100.00
2023-05-06T01:57:06.224Z,100.00
2023-05-06T01:59:34.957Z,100.00
2023-05-06T02:02:03.828Z,100.00
2023-05-06T02:04:33.154Z,100.00
2023-05-06T02:07:02.140Z,100.00
2023-05-06T02:09:30.895Z,100.00
2023-05-06T02:12:04.894Z,100.00
2023-05-06T02:14:33.679Z,100.00
2023-05-06T02:17:05.851Z,100.00
2023-05-06T02:19:35.836Z,100.00
2023-05-06T02:22:04.916Z,100.00
2023-05-06T02:24:33.608Z,100.00
2023-05-06T02:27:04.306Z,100.00
2023-05-06T02:29:32.940Z,100.00
2023-05-06T02:32:01.932Z,100.00
2023-05-06T02:34:31.017Z,100.00
2023-05-06T02:37:00.084Z,100.00
2023-05-06T02:39:28.732Z,100.00
2023-05-06T02:41:57.403Z,100.00
2023-05-06T02:44:27.526Z,100.00
2023-05-06T02:46:56.198Z,100.00
2023-05-06T02:49:24.851Z,100.00
2023-05-06T02:51:54.285Z,100.00
2023-05-06T02:54:22.931Z,100.00
2023-05-06T02:56:51.704Z,100.00
2023-05-06T02:59:21.145Z,100.00
2023-05-06T03:01:51.236Z,100.00
2023-05-06T03:04:19.951Z,100.00
2023-05-06T03:06:48.888Z,100.00
2023-05-06T03:09:17.609Z,100.00
2023-05-06T03:11:46.529Z,100.00
2023-05-06T03:14:15.817Z,100.00
2023-05-06T03:16:44.629Z,100.00
2023-05-06T03:19:14.977Z,100.00
2023-05-06T03:21:46.170Z,100.00
2023-05-06T03:24:15.180Z,100.00
2023-05-06T03:26:44.174Z,100.00
2023-05-06T03:29:16.171Z,100.00
2023-05-06T03:31:50.043Z,100.00
2023-05-06T03:34:21.072Z,100.00
2023-05-06T03:36:50.318Z,100.00
2023-05-06T03:39:20.578Z,100.00
2023-05-06T03:41:49.379Z,100.00
2023-05-06T03:44:19.775Z,100.00
2023-05-06T03:46:48.914Z,100.00
2023-05-06T03:49:17.870Z,100.00
2023-05-06T03:51:50.403Z,100.00
2023-05-06T03:54:20.365Z,100.00
2023-05-06T03:56:49.210Z,100.00
2023-05-06T03:59:18.369Z,100.00
2023-05-06T04:01:47.576Z,100.00
2023-05-06T04:04:17.342Z,100.00
2023-05-06T04:06:46.664Z,100.00
2023-05-06T04:09:16.941Z,100.00
2023-05-06T04:11:58.124Z,100.00
2023-05-06T04:14:29.818Z,100.00
2023-05-06T04:16:58.793Z,100.00
2023-05-06T04:19:28.180Z,100.00
2023-05-06T04:21:58.515Z,100.00
2023-05-06T04:24:29.556Z,100.00
2023-05-06T04:26:59.111Z,100.00
2023-05-06T04:29:41.117Z,100.00
2023-05-06T04:32:16.446Z,100.00
2023-05-06T04:34:47.425Z,100.00
2023-05-06T04:37:22.121Z,100.00
2023-05-06T04:39:57.372Z,100.00
2023-05-06T04:42:26.167Z,100.00
2023-05-06T04:45:07.763Z,100.00
2023-05-06T04:47:38.319Z,100.00
2023-05-06T04:50:09.671Z,100.00
2023-05-06T04:52:39.177Z,100.00
2023-05-06T04:55:11.705Z,100.00
2023-05-06T04:57:46.907Z,100.00
2023-05-06T05:00:16.698Z,100.00
2023-05-06T05:02:47.041Z,100.00
2023-05-06T05:05:18.231Z,100.00
2023-05-06T05:07:50.634Z,100.00
2023-05-06T05:10:21.493Z,100.00
2023-05-06T05:12:52.219Z,100.00
2023-05-06T05:15:21.635Z,100.00
2023-05-06T05:17:52.343Z,100.00
2023-05-06T05:20:24.735Z,100.00
2023-05-06T05:22:53.553Z,100.00
2023-05-06T05:25:23.861Z,100.00
2023-05-06T05:27:52.749Z,100.00
2023-05-06T05:30:21.589Z,100.00
2023-05-06T05:32:51.274Z,100.00
2023-05-06T05:35:20.270Z,100.00
2023-05-06T05:37:49.870Z,100.00
2023-05-06T05:40:19.644Z,99.90
2023-05-06T05:42:53.525Z,99.64
2023-05-06T05:45:29.328Z,100.00
2023-05-06T05:47:58.710Z,100.00
2023-05-06T05:50:28.283Z,100.00
2023-05-06T05:52:59.296Z,98.16
2023-05-06T05:55:30.869Z,95.35
2023-05-06T05:58:02.779Z,99.63
2023-05-06T06:00:33.400Z,99.04
2023-05-06T06:03:09.624Z,99.47
2023-05-06T06:05:38.757Z,98.57
2023-05-06T06:08:08.748Z,97.07
2023-05-06T06:10:37.840Z,100.00
2023-05-06T06:13:15.403Z,98.66
2023-05-06T06:15:45.623Z,99.25
2023-05-06T06:18:15.480Z,99.37
2023-05-06T06:20:46.297Z,100.00
2023-05-06T06:23:16.094Z,100.00
2023-05-06T06:25:44.898Z,100.00
2023-05-06T06:28:15.130Z,100.00
2023-05-06T06:30:44.468Z,100.00
2023-05-06T06:33:13.494Z,100.00
2023-05-06T06:35:43.011Z,100.00
2023-05-06T06:38:11.785Z,100.00
2023-05-06T06:40:40.814Z,100.00
2023-05-06T06:43:09.755Z,100.00
2023-05-06T06:45:52.254Z,100.00
2023-05-06T06:48:21.568Z,100.00
2023-05-06T06:50:50.390Z,100.00
2023-05-06T06:53:19.185Z,100.00
2023-05-06T06:55:48.419Z,100.00
2023-05-06T06:58:17.389Z,100.00
2023-05-06T07:00:46.159Z,100.00
2023-05-06T07:03:19.793Z,100.00
2023-05-06T07:05:48.612Z,100.00
2023-05-06T07:08:18.225Z,100.00
2023-05-06T07:10:47.087Z,100.00
2023-05-06T07:13:34.288Z,98.52
2023-05-06T07:16:02.991Z,99.60
2023-05-06T07:18:33.340Z,98.64
2023-05-06T07:21:02.651Z,96.38
2023-05-06T07:23:32.163Z,94.83
2023-05-06T07:26:00.998Z,96.26
2023-05-06T07:28:29.749Z,97.41
2023-05-06T07:30:58.507Z,95.22
2023-05-06T07:33:27.344Z,92.20
2023-05-06T07:35:57.490Z,96.31
2023-05-06T07:38:26.328Z,92.55
2023-05-06T07:40:55.020Z,90.87
2023-05-06T07:43:24.031Z,92.31
2023-05-06T07:46:02.859Z,91.95
2023-05-06T07:48:32.773Z,91.23
2023-05-06T07:51:04.271Z,89.22
2023-05-06T07:53:33.211Z,90.67
2023-05-06T07:56:03.977Z,89.64
2023-05-06T07:58:33.391Z,88.66
2023-05-06T08:01:03.490Z,89.46
2023-05-06T08:03:33.417Z,89.47
2023-05-06T08:06:03.645Z,89.96
2023-05-06T08:08:32.569Z,90.53
2023-05-06T08:11:01.358Z,88.79
2023-05-06T08:13:35.449Z,88.78
2023-05-06T08:16:04.555Z,92.06
2023-05-06T08:18:33.427Z,90.83
2023-05-06T08:21:11.120Z,89.67
2023-05-06T08:23:39.850Z,88.46
2023-05-06T08:26:08.623Z,88.03
2023-05-06T08:28:37.446Z,87.29
2023-05-06T08:31:06.410Z,88.85
2023-05-06T08:33:36.196Z,87.43
2023-05-06T08:36:06.790Z,87.65
2023-05-06T08:38:35.694Z,87.45
2023-05-06T08:41:10.801Z,86.32
2023-05-06T08:43:44.392Z,89.19
2023-05-06T08:46:13.294Z,89.72
2023-05-06T08:48:42.968Z,88.23
2023-05-06T08:51:15.988Z,85.69
2023-05-06T08:53:51.638Z,87.93
2023-05-06T08:56:23.337Z,87.32
2023-05-06T08:58:54.002Z,85.83
2023-05-06T09:01:22.937Z,84.11
2023-05-06T09:03:53.002Z,82.47
2023-05-06T09:06:24.178Z,81.15
2023-05-06T09:08:52.861Z,83.44
2023-05-06T09:11:24.881Z,82.08
2023-05-06T09:14:11.452Z,81.34
2023-05-06T09:16:43.671Z,80.86
2023-05-06T09:19:12.910Z,80.43
2023-05-06T09:21:46.776Z,78.91
2023-05-06T09:24:17.502Z,79.78
2023-05-06T09:26:48.377Z,79.96
2023-05-06T09:29:17.375Z,79.04
2023-05-06T09:31:48.177Z,80.12
2023-05-06T09:34:18.165Z,78.62
2023-05-06T09:36:48.537Z,80.85
2023-05-06T09:39:17.415Z,80.60
2023-05-06T09:41:46.905Z,79.61
2023-05-06T09:44:16.621Z,78.60
2023-05-06T09:46:52.108Z,76.19
2023-05-06T09:49:21.973Z,77.79
2023-05-06T09:51:53.924Z,76.10
2023-05-06T09:54:24.256Z,75.67
2023-05-06T09:56:56.577Z,74.51
2023-05-06T09:59:29.468Z,73.77
2023-05-06T10:02:00.353Z,74.26
2023-05-06T10:04:32.324Z,75.10
2023-05-06T10:07:04.917Z,73.94
2023-05-06T10:09:34.842Z,73.90
2023-05-06T10:12:04.371Z,74.95
2023-05-06T10:14:33.557Z,74.20
2023-05-06T10:17:03.522Z,75.08
2023-05-06T10:19:34.504Z,76.76
2023-05-06T10:22:12.375Z,76.19
2023-05-06T10:24:55.310Z,76.03
2023-05-06T10:27:26.305Z,76.05
2023-05-06T10:30:00.662Z,75.15
2023-05-06T10:32:43.240Z,75.25
2023-05-06T10:35:33.169Z,75.12
2023-05-06T10:38:06.797Z,76.36
2023-05-06T10:40:35.883Z,76.79
2023-05-06T10:43:26.996Z,76.91
2023-05-06T10:46:17.873Z,76.89
2023-05-06T10:49:19.404Z,74.38
2023-05-06T10:52:14.420Z,73.69
2023-05-06T10:54:52.742Z,73.05
2023-05-06T10:57:26.621Z,74.76
2023-05-06T10:59:56.640Z,73.83
2023-05-06T11:02:27.448Z,73.04
2023-05-06T11:05:03.589Z,73.22
2023-05-06T11:07:33.211Z,73.86
2023-05-06T11:10:06.926Z,72.29
2023-05-06T11:12:50.715Z,72.84
2023-05-06T11:15:25.662Z,72.51
2023-05-06T11:17:56.010Z,70.90
2023-05-06T11:20:27.867Z,68.95
2023-05-06T11:22:56.745Z,69.32
2023-05-06T11:25:47.250Z,68.16
2023-05-06T11:28:17.452Z,68.68
2023-05-06T11:30:56.633Z,67.20
2023-05-06T11:33:31.256Z,68.40
2023-05-06T11:36:02.818Z,68.16
2023-05-06T11:38:49.624Z,66.06
2023-05-06T11:41:21.231Z,65.42
2023-05-06T11:43:51.172Z,63.48
2023-05-06T11:46:21.962Z,63.83
2023-05-06T11:48:51.676Z,63.19
2023-05-06T11:51:24.283Z,59.16
2023-05-06T11:53:53.545Z,59.53
2023-05-06T11:56:24.152Z,62.80
2023-05-06T11:58:54.152Z,58.52
2023-05-06T12:01:24.699Z,60.82
2023-05-06T12:03:57.271Z,60.52
2023-05-06T12:06:36.333Z,58.84
2023-05-06T12:09:07.979Z,59.61
2023-05-06T12:11:41.629Z,59.93
2023-05-06T12:14:13.475Z,60.42
2023-05-06T12:16:44.215Z,58.46
2023-05-06T12:19:13.074Z,60.62
2023-05-06T12:21:42.058Z,60.95
2023-05-06T12:24:12.465Z,61.80
2023-05-06T12:26:48.754Z,61.07
2023-05-06T12:29:19.581Z,58.91
2023-05-06T12:31:49.796Z,58.90
2023-05-06T12:34:19.378Z,56.41
2023-05-06T12:36:49.971Z,54.79
2023-05-06T12:39:20.419Z,55.79
2023-05-06T12:41:51.023Z,55.53
2023-05-06T12:44:37.710Z,56.31
2023-05-06T12:47:08.726Z,56.94
2023-05-06T12:49:52.722Z,56.11
2023-05-06T12:52:23.879Z,59.11
2023-05-06T12:54:54.895Z,59.96
2023-05-06T12:57:26.265Z,61.29
2023-05-06T12:59:56.544Z,60.25
2023-05-06T13:02:25.618Z,59.96
2023-05-06T13:04:54.457Z,60.06
2023-05-06T13:07:23.349Z,58.21
2023-05-06T13:09:53.516Z,56.34
2023-05-06T13:12:22.390Z,57.39
2023-05-06T13:14:53.933Z,58.00
2023-05-06T13:17:23.111Z,56.76
2023-05-06T13:19:52.148Z,56.53
2023-05-06T13:22:21.100Z,53.28
2023-05-06T13:24:49.842Z,55.21
2023-05-06T13:27:18.812Z,51.03
2023-05-06T13:29:47.496Z,49.13
2023-05-06T13:32:17.730Z,48.53
2023-05-06T13:34:46.771Z,49.04
2023-05-06T13:37:15.455Z,50.08
2023-05-06T13:39:44.126Z,51.07
2023-05-06T13:42:14.077Z,48.86
2023-05-06T13:44:43.526Z,49.49
2023-05-06T13:47:22.854Z,49.21
2023-05-06T13:49:51.845Z,47.41
2023-05-06T13:52:20.674Z,46.76
2023-05-06T13:54:49.620Z,46.47
2023-05-06T13:57:19.016Z,46.32
2023-05-06T13:59:49.149Z,47.01
2023-05-06T14:02:18.163Z,47.63
2023-05-06T14:04:48.340Z,46.02
2023-05-06T14:07:17.007Z,44.80
2023-05-06T14:09:45.710Z,46.47
2023-05-06T14:12:14.358Z,47.25
2023-05-06T14:14:43.146Z,50.18
2023-05-06T14:17:11.972Z,51.74
2023-05-06T14:19:40.687Z,54.35
2023-05-06T14:22:10.892Z,53.24
2023-05-06T14:24:39.672Z,51.19
2023-05-06T14:27:08.416Z,52.00
2023-05-06T14:29:37.206Z,52.29
2023-05-06T14:32:06.465Z,52.29
2023-05-06T14:34:36.701Z,52.89
2023-05-06T14:37:05.902Z,54.44
2023-05-06T14:39:36.214Z,54.96
2023-05-06T14:42:05.141Z,54.43
2023-05-06T14:44:33.772Z,55.96
2023-05-06T14:47:02.576Z,54.59
2023-05-06T14:49:31.347Z,51.91
2023-05-06T14:52:00.029Z,50.32
2023-05-06T14:54:29.519Z,50.26
2023-05-06T14:57:02.917Z,50.40
2023-05-06T14:59:31.843Z,49.56
2023-05-06T15:02:00.847Z,48.78
2023-05-06T15:04:29.589Z,50.16
2023-05-06T15:06:58.385Z,49.83
2023-05-06T15:09:27.476Z,50.16
2023-05-06T15:11:56.280Z,52.25
2023-05-06T15:14:26.750Z,53.36
2023-05-06T15:16:58.585Z,53.76
2023-05-06T15:19:27.433Z,54.48
2023-05-06T15:21:56.402Z,55.14
2023-05-06T15:24:25.191Z,57.46
2023-05-06T15:26:54.494Z,57.16
2023-05-06T15:29:23.219Z,57.58
2023-05-06T15:31:53.359Z,58.66
2023-05-06T15:34:31.685Z,58.86
2023-05-06T15:37:01.682Z,59.83
2023-05-06T15:39:30.389Z,60.98
2023-05-06T15:42:01.300Z,60.85
2023-05-06T15:44:31.973Z,60.23
2023-05-06T15:47:02.274Z,61.41
2023-05-06T15:52:04.371Z,59.20
2023-05-06T15:54:34.793Z,60.36
2023-05-06T15:57:07.478Z,60.37
2023-05-06T15:59:48.407Z,60.20
2023-05-06T16:04:56.118Z,60.66
2023-05-06T16:07:26.617Z,60.52
2023-05-06T16:09:55.409Z,61.06
2023-05-06T16:12:24.385Z,61.78
2023-05-06T16:14:53.387Z,61.86
2023-05-06T16:17:23.603Z,61.01
2023-05-06T16:19:52.528Z,61.14
2023-05-06T16:22:21.271Z,61.75
2023-05-06T16:24:49.927Z,61.28
2023-05-06T16:27:18.603Z,61.11
2023-05-06T16:29:47.321Z,61.50
2023-05-06T16:32:16.020Z,61.30
2023-05-06T16:34:46.088Z,60.83
2023-05-06T16:37:16.309Z,60.33
2023-05-06T16:39:44.912Z,61.26
2023-05-06T16:42:13.748Z,61.27
2023-05-06T16:44:42.731Z,61.42
2023-05-06T16:47:11.709Z,60.43
2023-05-06T16:49:40.619Z,60.99
2023-05-06T16:52:10.711Z,61.01
2023-05-06T16:54:39.757Z,61.39
2023-05-06T16:57:08.701Z,60.13
2023-05-06T16:59:37.646Z,60.53
2023-05-06T17:02:06.410Z,61.54
2023-05-06T17:44:29.181Z,63.32
2023-05-06T17:46:58.226Z,63.41
2023-05-06T17:49:27.058Z,63.34
2023-05-06T17:51:56.117Z,63.33
2023-05-06T17:54:28.093Z,63.66
2023-05-06T17:56:56.823Z,63.47
2023-05-06T17:59:26.254Z,63.73
2023-05-06T18:02:00.384Z,64.16
2023-05-06T18:04:29.039Z,63.74
2023-05-06T18:06:57.777Z,63.84
2023-05-06T18:09:26.432Z,64.21
2023-05-06T18:15:09.773Z,63.82
2023-05-06T18:17:40.675Z,63.99
2023-05-06T18:20:14.318Z,63.95
2023-05-06T18:22:43.945Z,64.17
2023-05-06T18:25:22.173Z,64.29
2023-05-06T18:27:50.943Z,64.10
2023-05-06T18:30:19.638Z,64.67
2023-05-06T18:32:51.780Z,64.12
2023-05-06T18:35:21.665Z,64.15
2023-05-06T18:37:50.376Z,64.32
2023-05-06T18:40:19.580Z,64.33
2023-05-06T18:42:53.292Z,64.29
2023-05-06T18:45:34.421Z,64.71
2023-05-06T18:48:05.205Z,64.99
2023-05-06T18:51:10.494Z,64.68
2023-05-06T18:53:41.434Z,64.77
2023-05-06T18:57:01.575Z,64.33
2023-05-06T19:04:27.010Z,65.16
2023-05-06T19:06:59.033Z,65.11
2023-05-06T19:09:28.305Z,65.15
2023-05-06T19:12:00.083Z,65.85
2023-05-06T19:14:28.909Z,65.50
2023-05-06T19:17:00.078Z,65.49
2023-05-06T19:19:35.143Z,64.96
2023-05-06T19:22:04.417Z,64.80
2023-05-06T19:24:37.629Z,64.92
2023-05-06T19:27:13.221Z,64.70
2023-05-06T19:29:43.068Z,64.52
2023-05-06T19:32:47.888Z,64.14
2023-05-06T19:38:48.843Z,64.16
2023-05-06T19:41:18.215Z,64.80
2023-05-06T19:43:49.364Z,64.29
2023-05-06T19:46:18.359Z,64.53
2023-05-06T19:48:50.021Z,64.42
2023-05-06T19:51:23.115Z,64.87
2023-05-06T19:53:51.973Z,64.54
2023-05-06T19:56:20.955Z,64.95
2023-05-06T19:59:05.130Z,64.90
2023-05-06T20:01:34.253Z,65.66
2023-05-06T20:04:06.212Z,65.39
2023-05-06T20:06:38.688Z,65.56
2023-05-06T20:09:07.444Z,65.55
2023-05-06T20:11:36.085Z,66.40
2023-05-06T20:14:05.857Z,66.30
2023-05-06T20:16:39.122Z,65.43
2023-05-06T20:19:08.219Z,65.33
2023-05-06T20:21:40.041Z,65.28
2023-05-06T20:24:09.256Z,65.22
2023-05-06T20:26:39.044Z,65.39
2023-05-06T20:29:07.914Z,65.44
2023-05-06T20:31:36.623Z,65.78
2023-05-06T20:34:06.338Z,66.00
2023-05-06T20:36:35.435Z,65.61
2023-05-06T20:39:05.636Z,65.59
2023-05-06T20:41:34.604Z,66.07
2023-05-06T20:44:03.310Z,66.38
2023-05-06T20:46:34.558Z,66.63
2023-05-06T20:49:03.369Z,66.65
2023-05-06T20:51:32.336Z,66.61
2023-05-06T20:54:01.326Z,66.40
2023-05-06T20:56:31.657Z,66.64
2023-05-06T20:59:00.520Z,66.06
2023-05-06T21:01:30.055Z,66.21
2023-05-06T21:06:32.204Z,66.44
2023-05-06T21:09:00.923Z,66.92
2023-05-06T21:11:31.191Z,66.56
2023-05-06T21:14:01.019Z,66.29
2023-05-06T21:16:29.751Z,65.95
2023-05-06T21:18:58.529Z,66.41
2023-05-06T21:21:32.570Z,66.44
2023-05-06T21:24:01.713Z,66.09
2023-05-06T21:26:32.328Z,66.78
2023-05-06T21:29:00.978Z,66.92
2023-05-06T21:31:30.414Z,66.83
2023-05-06T21:34:00.503Z,66.74
2023-05-06T21:36:42.337Z,66.80
2023-05-06T21:39:17.197Z,67.36
2023-05-06T21:41:47.269Z,66.83
2023-05-06T21:44:16.151Z,67.15
2023-05-06T21:46:44.919Z,66.41
2023-05-06T21:49:13.622Z,66.62
2023-05-06T21:51:42.364Z,66.85
2023-05-06T21:54:11.048Z,67.10
2023-05-06T21:56:43.003Z,67.50
2023-05-06T21:59:13.361Z,67.67
2023-05-06T22:01:43.178Z,67.51
2023-05-06T22:04:13.369Z,67.92
2023-05-06T22:06:42.357Z,67.99
2023-05-06T22:09:12.152Z,68.10
2023-05-06T22:11:40.994Z,68.32
2023-05-06T22:14:12.093Z,68.75
2023-05-06T22:16:41.582Z,68.91
2023-05-06T22:19:10.496Z,68.82
2023-05-06T22:21:40.127Z,69.16
2023-05-06T22:24:09.312Z,69.22
2023-05-06T22:26:38.088Z,69.35
2023-05-06T22:29:06.864Z,69.72
2023-05-06T22:31:37.347Z,69.38
2023-05-06T22:34:06.085Z,69.25
2023-05-06T22:36:34.821Z,69.48
2023-05-06T22:39:04.084Z,70.37
2023-05-06T22:41:32.771Z,70.09
2023-05-06T22:44:04.563Z,70.86
2023-05-06T22:46:33.221Z,70.74
2023-05-06T22:49:03.541Z,71.51
2023-05-06T22:51:33.290Z,71.91
2023-05-06T22:54:02.251Z,71.55
2023-05-06T22:56:30.958Z,72.23
2023-05-06T22:58:59.672Z,70.40
2023-05-06T23:01:32.117Z,71.06
2023-05-06T23:04:03.642Z,71.01
2023-05-06T23:06:32.395Z,70.44
2023-05-06T23:09:01.152Z,70.96
2023-05-06T23:11:30.899Z,71.25
2023-05-06T23:13:59.546Z,71.03
2023-05-06T23:16:29.558Z,70.81
2023-05-06T23:18:58.501Z,71.71
2023-05-06T23:21:28.557Z,72.13
2023-05-06T23:23:57.395Z,72.35
2023-05-06T23:26:26.718Z,72.05
2023-05-06T23:28:55.818Z,72.46
2023-05-06T23:31:24.565Z,72.83
2023-05-06T23:33:53.331Z,72.59
2023-05-06T23:36:22.047Z,72.59
2023-05-06T23:38:53.149Z,72.98
2023-05-06T23:41:22.026Z,72.88
2023-05-06T23:43:50.653Z,72.72
2023-05-06T23:46:19.429Z,72.67
2023-05-06T23:48:48.317Z,72.98
2023-05-06T23:51:17.045Z,72.82
2023-05-06T23:53:45.926Z,73.02
2023-05-06T23:58:57.644Z,72.32
